GMAD/AGA METAR and TAF weather

Enter ICAO airport designator
Station Type Date Time Source
GMAD METAR 2020/11/27 13:00 UTC NOAA

GMAD 271300Z 23006KT 200V260 9999 SCT016 SCT083 17/09 Q1009 NOSIG


Station Type Date Time Source
GMAD Decoded METAR 2020/11/27 13:00 UTC NOAA

Agadir Al Massira, Morocco (GMAD) 30-20N 009-24W 74M
Nov 27, 2020 - 08:00 AM EST / 2020.11.27 1300 UTC
Wind: from the SW (230 degrees) at 7 MPH (6 KT) (direction variable):0
Visibility: greater than 7 mile(s):0
Sky conditions: partly cloudy
Temperature: 62 F (17 C)
Dew Point: 48 F (9 C)
Relative Humidity: 59%
Pressure (altimeter): 29.80 in. Hg (1009 hPa)
ob: GMAD 271300Z 23006KT 200V260 9999 SCT016 SCT083 17/09 Q1009 NOSIG
cycle: 13

Station Type Date Time Source
GMAD TAF 2020/11/27 12:21 UTC NOAA

TAF GMAD 271100Z 2712/2818 27012KT 8000 SCT020 BKN080
TEMPO 2718/2724 RA

Example: see airport list